Kezdőlap
METAR-TAF:

METAR-TAF

Repülőterek :

Odessa-Schlemeyer Field

Odessa, Texas, Amerikai Egyesült Államok

földrajzi szélesség: 31-55-17N, földrajzi hosszúság: 102-23-30W, magasság: 914 m

Jelenlegi meteorológiai megfigyelések

A jelentés 24 perccel ezelõtt készült, 14:53 UTC
Déli szél 19 kt széllökések: 26 kt
Hőmérséklet 28°C
Páratartalom 62%
Légköri nyomás 1009 hPa
Látótávolság: 16.1 km
Derült ég

METAR: KODO 181453Z AUTO 19019G26KT 10SM CLR 28/20 A2981 RMK AO2 PK WND 19030/1359 SLP040 T02780200 51008

Idő: 10:17 (15:17 UTC)


TAF: hiányzik

Meteorológiai megfigyelések és előrejelzések több, mint 4000 repülőtéren (METAR és TAF jelentéseket).

A térképen piros és sárga pontok jelzik az elérhető meteorológiai állomásokat.

Mozgassa az egeret a pont fölött, hogy megjelenjen az állomás neve.

Azután kattintson az időjárási megfigyelések és előrejelzések megtekintéséhez.

A térkép megváltoztatása: kattintson a fekete keresztel jelölt zöld gombra ráközelítéshez, a vonallal jelölt zöld gombra távolításhoz, vagy a zöld nyilakra a szomszédos térképek eléréséhez.


METAR-TAF: